Check out our new BloomSky Weather System.

Active alerts


No alerts


Thunder radar  blitzortung!


Rain radar more information rain snow radar


Visit our other weather sites:

Template documentation
and downloads

And another site



Weather Underground History page Text

Daily Summary for October 18, 2017 Units:  English    Metric   Both
« Previous Day
Next Day »
Daily Weekly Monthly Yearly Custom
  High: Low: Average:
Temperature: 84.0 °F 48.9 °F 66.8 °F
Dew Point: 65.7 °F 47.3 °F 56.7 °F
Humidity: 97 % 42 % 74 %
Wind Speed: 6.0 mph 0.0 mph 0.7 mph
Wind Gust: 8.0 mph - -
Wind:- - SE
Pressure: 30.18 in 30.06 in -
Precipitation: 0.00 in    
Historical Graphs
 
 
Tabular Data for October 18, 2017
Time Temperature Dew Point Pressure Wind Wind Speed Wind Gust Humidity Rainfall Rate (Hourly)
00:00 55.4 °F 51.6 °F 30.16 in Calm     87 % 0.00 in
00:05 55.2 °F 51.4 °F 30.16 in Calm     87 % 0.00 in
00:10 55.2 °F 51.8 °F 30.16 in Calm     88 % 0.00 in
00:15 54.9 °F 51.4 °F 30.16 in Calm     88 % 0.00 in
00:20 54.9 °F 51.4 °F 30.16 in Calm     88 % 0.00 in
00:25 54.9 °F 51.4 °F 30.16 in Calm     88 % 0.00 in
00:30 54.9 °F 51.1 °F 30.16 in Calm     87 % 0.00 in
00:35 54.7 °F 50.9 °F 30.16 in Calm     87 % 0.00 in
00:40 54.5 °F 51.1 °F 30.16 in Calm     88 % 0.00 in
00:46 54.5 °F 51.1 °F 30.16 in Calm     88 % 0.00 in
00:51 54.3 °F 50.9 °F 30.16 in Calm     88 % 0.00 in
00:56 54.1 °F 50.7 °F 30.15 in Calm     88 % 0.00 in
01:01 54.0 °F 50.7 °F 30.15 in Calm     89 % 0.00 in
01:06 53.8 °F 50.5 °F 30.15 in Calm     89 % 0.00 in
01:11 53.4 °F 50.2 °F 30.15 in Calm     89 % 0.00 in
01:16 53.2 °F 50.0 °F 30.15 in Calm     89 % 0.00 in
01:21 53.4 °F 50.9 °F 30.15 in Calm     91 % 0.00 in
01:26 53.2 °F 50.4 °F 30.15 in Calm     90 % 0.00 in
01:31 53.2 °F 50.7 °F 30.15 in Calm     91 % 0.00 in
01:36 53.2 °F 50.7 °F 30.15 in Calm     91 % 0.00 in
01:41 53.1 °F 50.5 °F 30.15 in Calm     91 % 0.00 in
01:46 52.7 °F 50.2 °F 30.15 in Calm     91 % 0.00 in
01:51 52.5 °F 50.0 °F 30.15 in Calm     91 % 0.00 in
01:56 52.3 °F 50.0 °F 30.15 in Calm     92 % 0.00 in
02:01 52.3 °F 50.0 °F 30.15 in Calm     92 % 0.00 in
02:06 52.2 °F 49.8 °F 30.15 in Calm     92 % 0.00 in
02:11 52.2 °F 50.2 °F 30.15 in Calm     93 % 0.00 in
02:16 52.0 °F 50.0 °F 30.14 in Calm     93 % 0.00 in
02:21 52.0 °F 50.4 °F 30.14 in Calm     94 % 0.00 in
02:26 52.0 °F 50.0 °F 30.14 in Calm     93 % 0.00 in
02:31 51.4 °F 49.3 °F 30.14 in Calm     92 % 0.00 in
02:36 51.4 °F 49.5 °F 30.15 in Calm     93 % 0.00 in
02:41 51.3 °F 49.3 °F 30.14 in Calm     93 % 0.00 in
02:46 51.3 °F 49.6 °F 30.14 in Calm     94 % 0.00 in
02:51 51.4 °F 49.8 °F 30.14 in Calm     94 % 0.00 in
02:56 51.4 °F 49.8 °F 30.14 in Calm     94 % 0.00 in
03:01 51.1 °F 49.5 °F 30.14 in Calm     94 % 0.00 in
03:06 51.1 °F 49.5 °F 30.14 in Calm     94 % 0.00 in
03:11 50.7 °F 49.1 °F 30.14 in Calm     94 % 0.00 in
03:17 50.5 °F 48.9 °F 30.14 in Calm     94 % 0.00 in
03:22 50.5 °F 49.1 °F 30.14 in Calm     95 % 0.00 in
03:27 50.5 °F 49.1 °F 30.14 in Calm     95 % 0.00 in
03:31 50.4 °F 48.9 °F 30.14 in Calm     95 % 0.00 in
03:37 50.4 °F 48.9 °F 30.14 in Calm     95 % 0.00 in
03:42 50.4 °F 48.9 °F 30.14 in Calm     95 % 0.00 in
03:46 50.4 °F 48.9 °F 30.14 in Calm     95 % 0.00 in
03:52 50.0 °F 48.6 °F 30.14 in Calm     95 % 0.00 in
03:57 49.6 °F 48.2 °F 30.14 in Calm     95 % 0.00 in
04:02 49.3 °F 47.8 °F 30.14 in Calm     95 % 0.00 in
04:07 48.9 °F 47.3 °F 30.13 in Calm     94 % 0.00 in
04:12 48.9 °F 47.8 °F 30.13 in Calm     96 % 0.00 in
04:17 49.3 °F 48.2 °F 30.13 in Calm     96 % 0.00 in
04:22 49.1 °F 48.0 °F 30.13 in Calm     96 % 0.00 in
04:27 49.3 °F 48.2 °F 30.13 in Calm     96 % 0.00 in
04:32 49.5 °F 48.4 °F 30.13 in Calm     96 % 0.00 in
04:37 49.6 °F 48.6 °F 30.13 in Calm     96 % 0.00 in
04:42 49.6 °F 48.7 °F 30.13 in Calm     97 % 0.00 in
04:47 49.6 °F 48.6 °F 30.13 in Calm     96 % 0.00 in
04:52 49.8 °F 48.9 °F 30.13 in Calm     97 % 0.00 in
04:57 50.0 °F 49.1 °F 30.13 in Calm     97 % 0.00 in
05:02 49.8 °F 48.7 °F 30.13 in Calm     96 % 0.00 in
05:07 49.8 °F 48.7 °F 30.13 in Calm     96 % 0.00 in
05:12 49.6 °F 48.6 °F 30.13 in Calm     96 % 0.00 in
05:18 49.8 °F 48.7 °F 30.13 in Calm     96 % 0.00 in
05:22 49.8 °F 48.7 °F 30.14 in Calm     96 % 0.00 in
05:28 50.2 °F 49.3 °F 30.14 in Calm   1.0 mph 97 % 0.00 in
05:33 50.4 °F 49.5 °F 30.14 in Calm   1.0 mph 97 % 0.00 in
05:38 50.0 °F 48.9 °F 30.14 in Calm   1.0 mph 96 % 0.00 in
05:43 49.5 °F 48.4 °F 30.14 in Calm   1.0 mph 96 % 0.00 in
05:48 49.1 °F 48.0 °F 30.14 in Calm     96 % 0.00 in
05:53 49.1 °F 48.0 °F 30.14 in Calm     96 % 0.00 in
05:58 49.3 °F 48.4 °F 30.14 in Calm     97 % 0.00 in
06:03 49.6 °F 48.7 °F 30.14 in Calm   1.0 mph 97 % 0.00 in
06:08 49.8 °F 48.9 °F 30.14 in NE 1.0 mph 1.0 mph 97 % 0.00 in
06:09 50.0 °F 49.1 °F 30.14 in Calm   1.0 mph 97 % 0.00 in
06:14 50.4 °F 49.5 °F 30.14 in Calm   1.0 mph 97 % 0.00 in
06:19 50.4 °F 49.5 °F 30.14 in Calm   1.0 mph 97 % 0.00 in
06:24 50.5 °F 49.5 °F 30.14 in Calm   1.0 mph 96 % 0.00 in
06:29 50.5 °F 49.5 °F 30.14 in Calm   1.0 mph 96 % 0.00 in
06:34 50.7 °F 49.6 °F 30.14 in Calm   1.0 mph 96 % 0.00 in
06:39 50.7 °F 49.6 °F 30.14 in Calm   1.0 mph 96 % 0.00 in
06:44 50.7 °F 49.3 °F 30.14 in Calm   1.0 mph 95 % 0.00 in
06:49 50.4 °F 48.9 °F 30.14 in Calm   1.0 mph 95 % 0.00 in
06:54 50.2 °F 48.7 °F 30.14 in Calm   1.0 mph 95 % 0.00 in
06:59 49.8 °F 48.4 °F 30.14 in Calm     95 % 0.00 in
07:04 49.6 °F 48.2 °F 30.14 in Calm     95 % 0.00 in
07:09 49.8 °F 48.7 °F 30.14 in Calm     96 % 0.00 in
07:14 50.2 °F 49.1 °F 30.14 in Calm     96 % 0.00 in
07:19 50.2 °F 49.1 °F 30.14 in Calm   1.0 mph 96 % 0.00 in
07:24 50.4 °F 49.3 °F 30.14 in Calm   1.0 mph 96 % 0.00 in
07:29 50.2 °F 49.1 °F 30.14 in Calm   1.0 mph 96 % 0.00 in
07:34 50.2 °F 49.1 °F 30.15 in Calm     96 % 0.00 in
07:39 50.0 °F 48.9 °F 30.15 in Calm     96 % 0.00 in
07:44 49.8 °F 48.7 °F 30.15 in Calm     96 % 0.00 in
07:49 49.8 °F 48.7 °F 30.15 in Calm   1.0 mph 96 % 0.00 in
07:54 50.4 °F 49.5 °F 30.15 in Calm   1.0 mph 97 % 0.00 in
07:59 50.7 °F 49.8 °F 30.16 in Calm   1.0 mph 97 % 0.00 in
08:04 51.3 °F 50.2 °F 30.16 in Calm   1.0 mph 96 % 0.00 in
08:09 51.6 °F 50.5 °F 30.16 in Calm   1.0 mph 96 % 0.00 in
08:15 52.3 °F 50.9 °F 30.16 in Calm   1.0 mph 95 % 0.00 in
08:20 52.9 °F 51.4 °F 30.16 in Calm   1.0 mph 95 % 0.00 in
08:24 53.6 °F 52.0 °F 30.16 in NNW 2.0 mph 2.0 mph 94 % 0.00 in
08:30 54.5 °F 52.5 °F 30.16 in NNW 1.0 mph 2.0 mph 93 % 0.00 in
08:35 55.4 °F 52.9 °F 30.16 in Calm   2.0 mph 91 % 0.00 in
08:40 55.9 °F 52.7 °F 30.16 in NW 1.0 mph 2.0 mph 89 % 0.00 in
08:45 56.7 °F 53.1 °F 30.17 in Calm   2.0 mph 88 % 0.00 in
08:50 57.6 °F 54.0 °F 30.17 in Calm   2.0 mph 88 % 0.00 in
08:55 58.5 °F 54.0 °F 30.17 in Calm   1.0 mph 85 % 0.00 in
09:00 59.5 °F 54.7 °F 30.17 in Calm   1.0 mph 84 % 0.00 in
09:05 60.4 °F 54.5 °F 30.17 in NE 1.0 mph 2.0 mph 81 % 0.00 in
09:10 61.3 °F 55.0 °F 30.17 in Calm   2.0 mph 80 % 0.00 in
09:15 62.2 °F 55.6 °F 30.18 in Calm   2.0 mph 79 % 0.00 in
09:20 63.3 °F 55.2 °F 30.18 in Calm   3.0 mph 75 % 0.00 in
09:25 64.2 °F 56.1 °F 30.18 in Calm   3.0 mph 75 % 0.00 in
09:30 65.1 °F 55.9 °F 30.18 in Calm   3.0 mph 72 % 0.00 in
09:35 65.8 °F 56.1 °F 30.18 in North 1.0 mph 2.0 mph 71 % 0.00 in
09:40 66.6 °F 56.1 °F 30.18 in ENE 1.0 mph 4.0 mph 69 % 0.00 in
09:45 67.1 °F 56.1 °F 30.18 in Calm   4.0 mph 68 % 0.00 in
09:50 67.6 °F 56.7 °F 30.18 in Calm   4.0 mph 68 % 0.00 in
09:55 68.2 °F 56.8 °F 30.18 in Calm   2.0 mph 67 % 0.00 in
10:00 68.7 °F 56.5 °F 30.18 in ENE 2.0 mph 2.0 mph 65 % 0.00 in
10:05 69.4 °F 56.7 °F 30.18 in Calm   2.0 mph 64 % 0.00 in
10:10 70.2 °F 56.1 °F 30.18 in Calm   3.0 mph 61 % 0.00 in
10:15 71.2 °F 56.7 °F 30.18 in Calm   3.0 mph 60 % 0.00 in
10:20 71.8 °F 56.1 °F 30.18 in Calm   3.0 mph 58 % 0.00 in
10:25 71.8 °F 56.1 °F 30.18 in Calm   3.0 mph 58 % 0.00 in
10:30 72.3 °F 56.3 °F 30.18 in ENE 3.0 mph 4.0 mph 57 % 0.00 in
10:35 72.5 °F 56.5 °F 30.18 in Calm   4.0 mph 57 % 0.00 in
10:40 73.2 °F 57.0 °F 30.18 in NW 1.0 mph 4.0 mph 57 % 0.00 in
10:45 73.2 °F 56.7 °F 30.18 in NW 1.0 mph 4.0 mph 56 % 0.00 in
10:50 73.2 °F 56.7 °F 30.18 in Calm   4.0 mph 56 % 0.00 in
10:55 73.8 °F 56.1 °F 30.18 in NW 3.0 mph 5.0 mph 54 % 0.00 in
11:00 73.9 °F 56.3 °F 30.18 in Calm   5.0 mph 54 % 0.00 in
11:05 74.7 °F 56.5 °F 30.18 in Calm   5.0 mph 53 % 0.00 in
11:10 75.4 °F 57.6 °F 30.18 in SE 1.0 mph 3.0 mph 54 % 0.00 in
11:15 76.3 °F 57.9 °F 30.18 in Calm   2.0 mph 53 % 0.00 in
11:20 76.8 °F 57.4 °F 30.18 in Calm   3.0 mph 51 % 0.00 in
11:25 76.6 °F 56.7 °F 30.17 in WNW 1.0 mph 3.0 mph 50 % 0.00 in
11:30 76.3 °F 57.4 °F 30.17 in ENE 2.0 mph 4.0 mph 52 % 0.00 in
11:35 76.5 °F 57.6 °F 30.17 in South 2.0 mph 4.0 mph 52 % 0.00 in
11:40 77.4 °F 57.7 °F 30.17 in ESE 2.0 mph 5.0 mph 51 % 0.00 in
11:45 77.7 °F 59.2 °F 30.17 in Calm   5.0 mph 53 % 0.00 in
11:50 78.3 °F 59.7 °F 30.17 in SSE 2.0 mph 5.0 mph 53 % 0.00 in
11:52 78.6 °F 60.6 °F 30.17 in SSW 4.0 mph 5.0 mph 54 % 0.00 in
11:57 78.8 °F 60.8 °F 30.17 in SE 2.0 mph 6.0 mph 54 % 0.00 in
12:02 78.6 °F 60.1 °F 30.17 in SSE 3.0 mph 6.0 mph 53 % 0.00 in
12:07 78.1 °F 59.5 °F 30.17 in SSE 2.0 mph 7.0 mph 53 % 0.00 in
12:13 78.1 °F 59.0 °F 30.17 in SE 5.0 mph 7.0 mph 52 % 0.00 in
12:18 78.1 °F 59.5 °F 30.17 in SSE 5.0 mph 8.0 mph 53 % 0.00 in
12:23 78.6 °F 59.0 °F 30.16 in Calm   8.0 mph 51 % 0.00 in
12:28 78.8 °F 58.6 °F 30.16 in Calm   8.0 mph 50 % 0.00 in
12:33 78.6 °F 59.0 °F 30.16 in Calm   6.0 mph 51 % 0.00 in
12:38 79.0 °F 59.9 °F 30.16 in NNW 2.0 mph 4.0 mph 52 % 0.00 in
12:43 79.0 °F 59.9 °F 30.16 in SE 2.0 mph 4.0 mph 52 % 0.00 in
12:48 79.2 °F 59.5 °F 30.15 in Calm   5.0 mph 51 % 0.00 in
12:53 79.3 °F 59.7 °F 30.15 in SE 2.0 mph 6.0 mph 51 % 0.00 in
12:58 79.9 °F 60.1 °F 30.15 in SE 5.0 mph 6.0 mph 51 % 0.00 in
13:03 79.9 °F 59.0 °F 30.15 in South 2.0 mph 7.0 mph 49 % 0.00 in
13:08 79.9 °F 59.5 °F 30.15 in SSW 3.0 mph 7.0 mph 50 % 0.00 in
13:13 80.2 °F 59.4 °F 30.14 in South 3.0 mph 7.0 mph 49 % 0.00 in
13:18 80.8 °F 58.6 °F 30.14 in Calm   5.0 mph 47 % 0.00 in
13:23 81.5 °F 59.4 °F 30.14 in East 2.0 mph 5.0 mph 47 % 0.00 in
13:28 82.2 °F 58.8 °F 30.14 in ESE 3.0 mph 5.0 mph 45 % 0.00 in
13:33 81.9 °F 59.0 °F 30.13 in Calm   5.0 mph 46 % 0.00 in
13:38 81.9 °F 59.0 °F 30.13 in West 1.0 mph 5.0 mph 46 % 0.00 in
13:43 81.3 °F 59.2 °F 30.13 in Calm   5.0 mph 47 % 0.00 in
13:48 82.0 °F 60.4 °F 30.13 in SE 2.0 mph 4.0 mph 48 % 0.00 in
13:53 82.0 °F 60.4 °F 30.12 in ESE 2.0 mph 4.0 mph 48 % 0.00 in
13:58 82.6 °F 60.3 °F 30.12 in East 1.0 mph 4.0 mph 47 % 0.00 in
14:03 82.9 °F 59.4 °F 30.12 in WNW 1.0 mph 4.0 mph 45 % 0.00 in
14:08 83.1 °F 59.5 °F 30.12 in SE 1.0 mph 4.0 mph 45 % 0.00 in
14:13 82.8 °F 59.2 °F 30.12 in NNW 1.0 mph 6.0 mph 45 % 0.00 in
14:18 82.8 °F 57.9 °F 30.11 in ESE 2.0 mph 6.0 mph 43 % 0.00 in
14:23 82.2 °F 58.8 °F 30.11 in Calm   6.0 mph 45 % 0.00 in
14:28 81.7 °F 58.3 °F 30.11 in NNW 2.0 mph 6.0 mph 45 % 0.00 in
14:33 81.9 °F 58.5 °F 30.11 in SSE 6.0 mph 6.0 mph 45 % 0.00 in
14:38 81.7 °F 58.3 °F 30.10 in NNW 1.0 mph 7.0 mph 45 % 0.00 in
14:43 81.9 °F 57.2 °F 30.10 in Calm   7.0 mph 43 % 0.00 in
14:48 81.9 °F 57.7 °F 30.10 in ESE 1.0 mph 7.0 mph 44 % 0.00 in
14:53 81.9 °F 58.5 °F 30.10 in ESE 5.0 mph 7.0 mph 45 % 0.00 in
14:58 82.0 °F 59.2 °F 30.10 in Calm   8.0 mph 46 % 0.00 in
15:03 82.6 °F 58.5 °F 30.09 in East 5.0 mph 8.0 mph 44 % 0.00 in
15:08 82.8 °F 58.6 °F 30.09 in ENE 4.0 mph 8.0 mph 44 % 0.00 in
15:13 82.6 °F 59.0 °F 30.09 in East 1.0 mph 7.0 mph 45 % 0.00 in
15:18 82.6 °F 59.0 °F 30.09 in ENE 2.0 mph 7.0 mph 45 % 0.00 in
15:23 82.6 °F 59.7 °F 30.09 in ENE 3.0 mph 7.0 mph 46 % 0.00 in
15:28 82.9 °F 60.1 °F 30.09 in Calm   5.0 mph 46 % 0.00 in
15:33 83.1 °F 57.6 °F 30.09 in SE 2.0 mph 5.0 mph 42 % 0.00 in
15:38 82.9 °F 58.8 °F 30.09 in SE 2.0 mph 8.0 mph 44 % 0.00 in
15:44 83.7 °F 60.1 °F 30.09 in SSE 2.0 mph 8.0 mph 45 % 0.00 in
15:49 83.5 °F 60.4 °F 30.09 in NE 1.0 mph 8.0 mph 46 % 0.00 in
15:55 82.9 °F 60.1 °F 30.09 in East 2.0 mph 5.0 mph 46 % 0.00 in
16:00 83.3 °F 59.7 °F 30.09 in East 4.0 mph 5.0 mph 45 % 0.00 in
16:05 82.8 °F 59.2 °F 30.09 in ESE 3.0 mph 6.0 mph 45 % 0.00 in
16:10 82.8 °F 59.2 °F 30.09 in NNE 1.0 mph 6.0 mph 45 % 0.00 in
16:20 83.7 °F 60.1 °F 30.08 in Calm   5.0 mph 45 % 0.00 in
16:25 84.0 °F 60.4 °F 30.08 in ENE 1.0 mph 4.0 mph 45 % 0.00 in
16:30 83.5 °F 60.4 °F 30.08 in Calm   6.0 mph 46 % 0.00 in
16:35 83.5 °F 59.9 °F 30.08 in SSW 2.0 mph 6.0 mph 45 % 0.00 in
16:40 83.5 °F 60.4 °F 30.08 in SSW 2.0 mph 8.0 mph 46 % 0.00 in
16:45 83.1 °F 59.5 °F 30.08 in SE 3.0 mph 8.0 mph 45 % 0.00 in
16:50 82.8 °F 60.4 °F 30.08 in Calm   8.0 mph 47 % 0.00 in
16:55 82.9 °F 60.6 °F 30.07 in NNE 1.0 mph 7.0 mph 47 % 0.00 in
17:00 82.9 °F 60.6 °F 30.07 in ESE 2.0 mph 5.0 mph 47 % 0.00 in
17:05 82.8 °F 60.4 °F 30.07 in NE 1.0 mph 5.0 mph 47 % 0.00 in
17:10 82.6 °F 61.0 °F 30.07 in Calm   5.0 mph 48 % 0.00 in
17:15 82.6 °F 61.0 °F 30.07 in ENE 1.0 mph 4.0 mph 48 % 0.00 in
17:20 82.6 °F 61.0 °F 30.07 in Calm   4.0 mph 48 % 0.00 in
17:25 82.2 °F 61.2 °F 30.07 in East 3.0 mph 4.0 mph 49 % 0.00 in
17:30 81.9 °F 60.8 °F 30.07 in SE 1.0 mph 4.0 mph 49 % 0.00 in
17:35 81.7 °F 60.6 °F 30.07 in Calm   4.0 mph 49 % 0.00 in
17:41 81.5 °F 61.0 °F 30.07 in Calm   4.0 mph 50 % 0.00 in
17:46 81.5 °F 61.0 °F 30.06 in Calm   4.0 mph 50 % 0.00 in
17:51 81.1 °F 60.8 °F 30.07 in Calm   4.0 mph 50 % 0.00 in
17:56 81.0 °F 61.7 °F 30.07 in East 1.0 mph 4.0 mph 52 % 0.00 in
18:01 80.8 °F 62.1 °F 30.07 in SE 2.0 mph 4.0 mph 53 % 0.00 in
18:06 80.4 °F 61.7 °F 30.07 in ENE 3.0 mph 4.0 mph 53 % 0.00 in
18:11 80.1 °F 61.9 °F 30.07 in NE 3.0 mph 4.0 mph 54 % 0.00 in
18:16 79.9 °F 61.7 °F 30.07 in East 1.0 mph 4.0 mph 54 % 0.00 in
18:21 79.5 °F 61.9 °F 30.07 in Calm   4.0 mph 55 % 0.00 in
18:22 79.5 °F 61.9 °F 30.07 in Calm   4.0 mph 55 % 0.00 in
18:27 79.3 °F 62.2 °F 30.07 in Calm   4.0 mph 56 % 0.00 in
18:32 79.0 °F 62.4 °F 30.07 in East 1.0 mph 2.0 mph 57 % 0.00 in
18:37 78.6 °F 62.1 °F 30.07 in Calm   2.0 mph 57 % 0.00 in
18:42 78.3 °F 62.2 °F 30.07 in ESE 1.0 mph 2.0 mph 58 % 0.00 in
18:47 77.7 °F 62.2 °F 30.08 in East 1.0 mph 3.0 mph 59 % 0.00 in
18:52 77.5 °F 62.1 °F 30.08 in Calm   3.0 mph 59 % 0.00 in
18:57 77.2 °F 62.2 °F 30.08 in ESE 2.0 mph 3.0 mph 60 % 0.00 in
18:58 77.0 °F 62.1 °F 30.08 in SSE 2.0 mph 3.0 mph 60 % 0.00 in
19:03 76.6 °F 62.2 °F 30.08 in ESE 1.0 mph 3.0 mph 61 % 0.00 in
19:08 76.3 °F 62.2 °F 30.08 in SE 1.0 mph 3.0 mph 62 % 0.00 in
19:13 75.9 °F 61.9 °F 30.08 in Calm   3.0 mph 62 % 0.00 in
19:18 75.6 °F 62.1 °F 30.08 in SSE 1.0 mph 2.0 mph 63 % 0.00 in
19:23 75.4 °F 62.4 °F 30.09 in ESE 2.0 mph 2.0 mph 64 % 0.00 in
19:28 75.0 °F 62.1 °F 30.09 in ESE 1.0 mph 2.0 mph 64 % 0.00 in
19:33 74.7 °F 62.1 °F 30.09 in Calm   2.0 mph 65 % 0.00 in
19:38 74.3 °F 62.2 °F 30.09 in ESE 1.0 mph 2.0 mph 66 % 0.00 in
19:44 74.1 °F 62.4 °F 30.09 in Calm   2.0 mph 67 % 0.00 in
19:49 73.9 °F 62.2 °F 30.09 in Calm   2.0 mph 67 % 0.00 in
19:54 73.8 °F 63.0 °F 30.09 in SE 2.0 mph 2.0 mph 69 % 0.00 in
20:09 73.4 °F 63.5 °F 30.10 in ESE 1.0 mph 4.0 mph 71 % 0.00 in
20:14 73.2 °F 63.7 °F 30.10 in SE 1.0 mph 4.0 mph 72 % 0.00 in
20:19 73.0 °F 63.5 °F 30.10 in Calm   4.0 mph 72 % 0.00 in
20:24 72.9 °F 63.7 °F 30.10 in Calm   3.0 mph 73 % 0.00 in
20:29 72.7 °F 63.9 °F 30.10 in SE 1.0 mph 3.0 mph 74 % 0.00 in
20:34 72.7 °F 63.9 °F 30.10 in Calm   3.0 mph 74 % 0.00 in
20:39 72.7 °F 63.9 °F 30.11 in Calm   3.0 mph 74 % 0.00 in
20:44 72.3 °F 63.9 °F 30.11 in Calm   3.0 mph 75 % 0.00 in
20:49 72.1 °F 63.9 °F 30.11 in Calm   3.0 mph 75 % 0.00 in
20:54 72.1 °F 63.9 °F 30.11 in SE 1.0 mph 3.0 mph 75 % 0.00 in
20:59 72.0 °F 64.0 °F 30.11 in Calm   3.0 mph 76 % 0.00 in
21:04 71.8 °F 64.2 °F 30.11 in ESE 2.0 mph 3.0 mph 77 % 0.00 in
21:09 71.6 °F 64.0 °F 30.11 in ESE 1.0 mph 2.0 mph 77 % 0.00 in
21:14 71.4 °F 63.9 °F 30.11 in ESE 1.0 mph 3.0 mph 77 % 0.00 in
21:19 71.2 °F 64.0 °F 30.11 in Calm   3.0 mph 78 % 0.00 in
21:24 71.1 °F 63.9 °F 30.11 in Calm   3.0 mph 78 % 0.00 in
21:29 70.7 °F 63.9 °F 30.11 in Calm   2.0 mph 79 % 0.00 in
21:34 70.3 °F 63.9 °F 30.11 in Calm   2.0 mph 80 % 0.00 in
21:39 70.2 °F 64.0 °F 30.11 in Calm   2.0 mph 81 % 0.00 in
21:44 70.0 °F 64.2 °F 30.11 in Calm   2.0 mph 82 % 0.00 in
21:49 70.0 °F 64.6 °F 30.11 in SE 1.0 mph 2.0 mph 83 % 0.00 in
21:54 70.0 °F 64.6 °F 30.11 in Calm   2.0 mph 83 % 0.00 in
21:59 70.0 °F 64.9 °F 30.12 in SE 1.0 mph 3.0 mph 84 % 0.00 in
22:04 70.0 °F 64.9 °F 30.12 in ESE 2.0 mph 3.0 mph 84 % 0.00 in
22:09 69.8 °F 64.8 °F 30.12 in Calm   3.0 mph 84 % 0.00 in
22:16 69.6 °F 64.9 °F 30.12 in Calm   3.0 mph 85 % 0.00 in
22:20 69.6 °F 64.9 °F 30.12 in ESE 3.0 mph 5.0 mph 85 % 0.00 in
22:21 69.6 °F 65.3 °F 30.12 in Calm   5.0 mph 86 % 0.00 in
22:24 69.6 °F 65.3 °F 30.12 in Calm   5.0 mph 86 % 0.00 in
22:25 69.8 °F 65.5 °F 30.12 in East 4.0 mph 5.0 mph 86 % 0.00 in
22:26 69.8 °F 65.5 °F 30.12 in SSE 2.0 mph 5.0 mph 86 % 0.00 in
22:27 69.8 °F 65.5 °F 30.12 in SE 2.0 mph 5.0 mph 86 % 0.00 in
22:32 69.8 °F 65.5 °F 30.12 in SE 1.0 mph 5.0 mph 86 % 0.00 in
22:37 69.6 °F 65.3 °F 30.12 in SE 2.0 mph 4.0 mph 86 % 0.00 in
22:39 69.6 °F 65.3 °F 30.12 in ESE 2.0 mph 4.0 mph 86 % 0.00 in
22:42 69.6 °F 65.7 °F 30.12 in SE 1.0 mph 4.0 mph 87 % 0.00 in
22:47 69.4 °F 65.5 °F 30.12 in East 1.0 mph 4.0 mph 87 % 0.00 in
22:52 69.4 °F 65.5 °F 30.12 in SE 2.0 mph 4.0 mph 87 % 0.00 in
22:57 69.3 °F 65.5 °F 30.12 in East 2.0 mph 4.0 mph 88 % 0.00 in
23:02 69.3 °F 65.5 °F 30.12 in ESE 1.0 mph 4.0 mph 88 % 0.00 in
23:07 69.1 °F 65.3 °F 30.12 in Calm   3.0 mph 88 % 0.00 in
23:12 68.9 °F 65.5 °F 30.12 in Calm   3.0 mph 89 % 0.00 in
23:17 68.7 °F 65.3 °F 30.11 in Calm   3.0 mph 89 % 0.00 in
23:22 68.5 °F 65.1 °F 30.12 in ESE 2.0 mph 3.0 mph 89 % 0.00 in
23:27 68.4 °F 65.3 °F 30.11 in Calm   2.0 mph 90 % 0.00 in
23:32 68.4 °F 65.3 °F 30.11 in Calm   2.0 mph 90 % 0.00 in
23:37 68.0 °F 64.9 °F 30.11 in Calm   2.0 mph 90 % 0.00 in
23:42 67.6 °F 64.6 °F 30.11 in Calm   2.0 mph 90 % 0.00 in
23:47 67.3 °F 64.6 °F 30.11 in Calm   1.0 mph 91 % 0.00 in
23:50 67.1 °F 64.4 °F 30.11 in Calm   1.0 mph 91 % 0.00 in
23:55 66.7 °F 64.0 °F 30.11 in Calm   1.0 mph 91 % 0.00 in
Spring, Texas: Villages of Bridgestone
Compliments of Weather Underground - 3.25 mb

Script developed by  Jim McMurry - jmcmurry@mwt.net Adapted for the template by  Wim van der Kuil - Leuven-Template.eu

You find our weather info also at:

UK Metoffice

WeatherCloud

Weather Underground

Mid-South Weather Network

AWEKAS

Citizen Weather Observer Program (CWOP)

HAMweather, WeatherForYou, PWS Weather

Equipment we use:

Weather-station
Davis Vantage Vue

Weather-program
Meteohub

Weather-server
Debian 7.9 x86 (Guest)

Provider
DreamHost

Davis Vantage Vue

Meteohub

Debian 7.9 x86 (Guest)

DreamHost